Terminal Aerodrome Forecast
Issued by NWS Dodge City, KS

Home | Current Version | Previous Version | Text Only | Print | Product List | Glossary On
Versions: 1 2 3 4 5 6 7 8 9 10 11 12 13 14 15 16 17 18 19 20
000
FTUS43 KDDC 201406 AAA
TAFDDC
TAF AMD
KDDC 201406Z 2014/2112 25007KT P6SM BKN200
     FM201500 32015G25KT P6SM FEW250
     FM210100 33009KT P6SM SKC=

USA.gov is the U.S. government's official web portal to all federal, state and local government web resources and services.